Time;durP1;ratioP1;P1;durP2;ratioP2;P2;SDS_P1;SDS_P2;PMS_P1;PMS_P2;Temp;Humidity;BMP_temperature;BMP_pressure;BME280_temperature;BME280_humidity;BME280_pressure;Samples;Min_cycle;Max_cycle;Signal;HPM_P1;HPM_P2
2023/01/07 00:01:23;;;;;;;28.52;15.63;;;7.60;99.90;;;;;;5090999;28;20074;-85
2023/01/07 00:03:51;;;;;;;29.30;16.67;;;7.60;99.90;;;;;;5110456;28;20472;-84
2023/01/07 00:06:32;;;;;;;26.35;15.02;;;7.60;99.90;;;;;;5111668;28;20530;-85
2023/01/07 00:08:59;;;;;;;27.05;15.38;;;7.70;99.90;;;;;;5111183;28;20056;-85
2023/01/07 00:11:28;;;;;;;27.38;15.50;;;7.70;99.90;;;;;;5120502;28;20036;-85
2023/01/07 00:13:57;;;;;;;32.83;17.73;;;7.80;99.90;;;;;;5085432;28;20046;-85
2023/01/07 00:16:26;;;;;;;28.15;16.70;;;7.90;99.90;;;;;;5087706;28;20039;-85
2023/01/07 00:18:55;;;;;;;31.63;16.67;;;8.00;99.90;;;;;;5110574;28;20496;-86
2023/01/07 00:21:23;;;;;;;30.90;16.75;;;8.10;99.90;;;;;;5090596;28;20043;-85
2023/01/07 00:23:54;;;;;;;30.83;15.65;;;8.10;99.90;;;;;;5091755;28;20466;-85
2023/01/07 00:26:23;;;;;;;28.88;17.02;;;8.10;99.90;;;;;;5098026;28;20054;-85
2023/01/07 00:28:51;;;;;;;28.25;16.50;;;8.20;99.90;;;;;;5103939;28;20047;-85
2023/01/07 00:31:22;;;;;;;30.58;16.88;;;8.30;99.90;;;;;;5107314;28;20119;-85
2023/01/07 00:36:22;;;;;;;27.42;15.98;;;8.40;99.90;;;;;;5094030;28;20044;-85
2023/01/07 00:39:04;;;;;;;28.95;16.40;;;8.40;99.90;;;;;;5090664;28;20089;-85
2023/01/07 00:41:30;;;;;;;31.10;16.58;;;8.50;99.90;;;;;;5100692;28;20079;-85
2023/01/07 00:43:57;;;;;;;30.40;15.68;;;8.60;99.90;;;;;;5073924;28;20072;-85
2023/01/07 00:46:24;;;;;;;30.27;16.40;;;8.60;99.90;;;;;;5101222;28;20039;-85
2023/01/07 00:48:51;;;;;;;29.25;16.42;;;8.60;99.90;;;;;;5101337;28;20036;-85
2023/01/07 00:51:18;;;;;;;32.78;16.98;;;8.70;99.90;;;;;;5093788;28;20082;-85
2023/01/07 00:53:45;;;;;;;28.42;16.02;;;8.70;99.90;;;;;;5075266;28;20075;-85
2023/01/07 00:56:14;;;;;;;28.65;15.80;;;8.70;99.90;;;;;;5090017;28;20412;-85
2023/01/07 00:58:41;;;;;;;28.73;15.15;;;8.70;99.90;;;;;;5112255;28;20087;-84
2023/01/07 01:01:09;;;;;;;27.85;16.13;;;8.70;99.90;;;;;;5083214;28;20072;-85
2023/01/07 01:03:37;;;;;;;25.15;15.32;;;8.70;99.90;;;;;;5105997;28;20041;-85
2023/01/07 01:06:12;;;;;;;25.83;15.40;;;8.80;99.90;;;;;;5120768;28;20036;-85
2023/01/07 01:08:40;;;;;;;;;;;8.80;99.90;;;;;;5127377;28;20052;-83
2023/01/07 01:11:10;;;;;;;26.73;14.77;;;8.90;99.90;;;;;;5105620;28;19967;-85
2023/01/07 01:13:37;;;;;;;26.83;14.70;;;8.90;99.90;;;;;;5094051;28;20071;-85
2023/01/07 01:16:13;;;;;;;27.48;14.68;;;8.90;99.90;;;;;;5109204;28;20092;-85
2023/01/07 01:18:40;;;;;;;25.73;15.20;;;8.90;99.90;;;;;;5099887;28;20044;-85
2023/01/07 01:21:09;;;;;;;28.48;14.88;;;9.00;99.90;;;;;;5098640;28;20036;-85
2023/01/07 01:23:36;;;;;;;23.42;14.73;;;9.00;99.90;;;;;;5124116;28;20066;-85
2023/01/07 01:26:16;;;;;;;28.15;15.13;;;9.00;99.90;;;;;;5093281;28;20518;-85
2023/01/07 01:28:43;;;;;;;26.35;14.70;;;9.10;99.90;;;;;;5094785;28;20043;-85
2023/01/07 01:31:10;;;;;;;29.35;15.18;;;9.10;99.90;;;;;;5121107;28;20043;-85
2023/01/07 01:33:37;;;;;;;29.58;15.32;;;9.10;99.90;;;;;;5096169;28;20046;-85
2023/01/07 01:36:09;;;;;;;27.00;15.40;;;9.20;99.90;;;;;;5082950;28;20040;-85
2023/01/07 01:38:36;;;;;;;26.65;14.85;;;9.20;99.90;;;;;;5100519;28;20036;-85
2023/01/07 01:41:03;;;;;;;25.02;14.48;;;9.20;99.90;;;;;;5108376;28;20075;-85
2023/01/07 01:43:36;;;;;;;26.42;15.50;;;9.20;99.90;;;;;;5107334;28;20046;-85
2023/01/07 01:46:16;;;;;;;24.98;14.75;;;9.20;99.90;;;;;;5111624;28;20040;-85
2023/01/07 01:49:07;;;;;;;28.65;15.65;;;9.30;99.90;;;;;;5116520;28;20040;-85
2023/01/07 01:51:38;;;;;;;27.40;14.73;;;9.30;99.90;;;;;;5099646;28;20047;-85
2023/01/07 01:54:10;;;;;;;24.83;15.32;;;9.30;99.90;;;;;;5092394;28;20047;-86
2023/01/07 01:56:42;;;;;;;27.25;15.13;;;9.30;99.90;;;;;;5109203;28;20129;-85
2023/01/07 01:59:13;;;;;;;25.48;15.52;;;9.30;99.90;;;;;;5090707;28;20458;-85
2023/01/07 02:01:40;;;;;;;26.33;14.98;;;9.30;99.90;;;;;;5107472;28;20068;-86
2023/01/07 02:04:10;;;;;;;25.80;15.25;;;9.30;99.90;;;;;;5072645;28;20054;-85
2023/01/07 02:06:44;;;;;;;25.27;15.07;;;9.40;99.90;;;;;;5107618;28;20032;-84
2023/01/07 02:09:11;;;;;;;24.42;15.23;;;9.40;99.90;;;;;;5108675;28;20131;-85
2023/01/07 02:12:01;;;;;;;23.58;14.60;;;9.40;99.90;;;;;;5109570;28;20105;-85
2023/01/07 02:15:08;;;;;;;25.75;14.93;;;9.40;99.90;;;;;;5099842;28;20040;-85
2023/01/07 02:17:37;;;;;;;26.42;15.20;;;9.40;99.90;;;;;;5123808;28;20523;-85
2023/01/07 02:20:07;;;;;;;25.13;14.85;;;9.50;99.90;;;;;;5098769;28;20044;-85
2023/01/07 02:22:57;;;;;;;30.67;15.30;;;9.40;99.90;;;;;;5102116;28;20403;-85
2023/01/07 02:25:29;;;;;;;26.40;14.77;;;9.50;99.90;;;;;;5105687;28;20079;-85
2023/01/07 02:28:53;;;;;;;26.65;15.07;;;9.40;99.90;;;;;;5116334;28;20035;-85
2023/01/07 02:31:22;;;;;;;26.83;15.60;;;9.50;99.90;;;;;;5055983;28;20044;-85
2023/01/07 02:34:23;;;;;;;26.13;15.07;;;9.50;99.90;;;;;;5056917;28;20041;-85
2023/01/07 02:37:26;;;;;;;28.52;15.20;;;9.50;99.90;;;;;;5085421;28;20058;-85
2023/01/07 02:40:05;;;;;;;24.98;14.35;;;9.50;99.90;;;;;;5116239;28;20047;-84
2023/01/07 02:42:41;;;;;;;25.00;15.00;;;9.50;99.90;;;;;;5098444;28;20057;-85
2023/01/07 02:45:15;;;;;;;25.83;15.20;;;9.50;99.90;;;;;;5124468;28;20043;-84
2023/01/07 02:48:04;;;;;;;30.77;16.40;;;9.50;99.90;;;;;;5094029;28;20173;-85
2023/01/07 02:50:30;;;;;;;28.95;15.23;;;9.50;99.90;;;;;;5092495;28;20490;-85
2023/01/07 02:52:57;;;;;;;25.67;15.38;;;9.50;99.90;;;;;;5086228;28;20098;-85
2023/01/07 02:55:45;;;;;;;28.27;16.40;;;9.60;99.90;;;;;;5079390;28;20545;-85
2023/01/07 02:58:41;;;;;;;26.88;15.40;;;9.50;99.90;;;;;;5112384;28;20043;-85
2023/01/07 03:01:19;;;;;;;26.60;16.05;;;9.50;99.90;;;;;;5110283;28;20044;-85
2023/01/07 03:03:54;;;;;;;25.65;16.10;;;9.50;99.90;;;;;;5113232;28;20047;-85
2023/01/07 03:06:59;;;;;;;29.20;16.85;;;9.60;99.90;;;;;;5112526;28;20111;-85
2023/01/07 03:09:50;;;;;;;26.73;16.10;;;9.60;99.90;;;;;;5117269;28;20047;-85
2023/01/07 03:12:31;;;;;;;25.02;16.08;;;9.60;99.90;;;;;;5123792;28;20051;-85
2023/01/07 03:15:01;;;;;;;25.05;15.35;;;9.60;99.90;;;;;;5099336;28;20051;-84
2023/01/07 03:17:33;;;;;;;26.75;16.40;;;9.60;99.90;;;;;;5115906;28;20039;-85
2023/01/07 03:20:01;;;;;;;26.67;16.05;;;9.60;99.90;;;;;;5108489;28;20373;-85
2023/01/07 03:22:31;;;;;;;25.55;16.75;;;9.60;99.90;;;;;;5112687;28;20889;-85
2023/01/07 03:25:00;;;;;;;25.73;16.23;;;9.60;99.90;;;;;;5091096;28;20044;-84
2023/01/07 03:27:32;;;;;;;25.75;14.85;;;9.60;99.90;;;;;;5095224;28;20038;-85
2023/01/07 03:30:01;;;;;;;26.92;16.42;;;9.60;99.90;;;;;;5109747;28;20157;-85
2023/01/07 03:33:03;;;;;;;25.33;15.60;;;9.60;99.90;;;;;;5093389;28;20044;-85
2023/01/07 03:35:31;;;;;;;23.27;14.90;;;9.60;99.90;;;;;;5101730;28;20090;-85
2023/01/07 03:38:00;;;;;;;24.45;15.02;;;9.60;99.90;;;;;;5092011;28;20100;-85
2023/01/07 03:40:28;;;;;;;23.67;15.40;;;9.60;99.90;;;;;;5102687;28;20050;-85
2023/01/07 03:42:54;;;;;;;23.95;15.15;;;9.60;99.90;;;;;;5081896;28;20389;-85
2023/01/07 03:45:24;;;;;;;27.13;15.27;;;9.60;99.90;;;;;;5094587;28;20098;-85
2023/01/07 03:47:53;;;;;;;22.38;15.93;;;9.60;99.90;;;;;;5111770;28;20032;-85
2023/01/07 03:50:20;;;;;;;26.90;15.80;;;9.60;99.90;;;;;;5097765;28;20131;-85
2023/01/07 03:52:47;;;;;;;23.27;15.25;;;9.60;99.90;;;;;;5105027;28;20389;-85
2023/01/07 03:55:14;;;;;;;24.02;16.30;;;9.70;99.90;;;;;;5100895;28;20071;-85
2023/01/07 03:57:41;;;;;;;23.08;15.45;;;9.60;99.90;;;;;;5095233;28;20082;-85
2023/01/07 04:00:10;;;;;;;25.23;16.00;;;9.60;99.90;;;;;;5103551;28;20110;-85
2023/01/07 04:02:37;;;;;;;22.83;14.63;;;9.70;99.90;;;;;;5105915;28;20109;-85
2023/01/07 04:05:04;;;;;;;21.80;14.50;;;9.60;99.90;;;;;;5074527;28;20040;-85
2023/01/07 04:07:31;;;;;;;21.58;14.73;;;9.60;99.90;;;;;;5118692;28;20039;-85
2023/01/07 04:09:57;;;;;;;21.58;14.48;;;9.60;99.90;;;;;;5076470;28;20052;-85
2023/01/07 04:12:24;;;;;;;22.55;14.02;;;9.60;99.90;;;;;;5092186;28;20080;-85
2023/01/07 04:14:51;;;;;;;21.48;14.20;;;9.70;99.90;;;;;;5109550;28;20036;-85
2023/01/07 04:17:18;;;;;;;20.85;13.60;;;9.70;99.90;;;;;;5107998;28;20036;-85
2023/01/07 04:19:44;;;;;;;21.52;14.10;;;9.70;99.90;;;;;;5101181;28;20040;-85
2023/01/07 04:22:11;;;;;;;23.38;14.00;;;9.60;99.90;;;;;;5102494;28;20048;-85
2023/01/07 04:24:38;;;;;;;22.50;14.25;;;9.60;99.90;;;;;;5074208;28;20044;-85
2023/01/07 04:27:04;;;;;;;27.38;14.50;;;9.60;99.90;;;;;;5090852;28;20037;-85
2023/01/07 04:29:31;;;;;;;21.67;13.68;;;9.70;99.90;;;;;;5099866;28;20497;-85
2023/01/07 04:31:58;;;;;;;22.80;14.40;;;9.70;99.90;;;;;;5109535;28;20044;-85
2023/01/07 04:34:25;;;;;;;19.67;13.55;;;9.70;99.90;;;;;;5101210;28;20522;-85
2023/01/07 04:36:51;;;;;;;22.63;13.40;;;9.70;99.90;;;;;;5090343;28;20074;-85
2023/01/07 04:39:18;;;;;;;20.10;13.68;;;9.70;99.90;;;;;;5077795;28;20047;-85
2023/01/07 04:41:45;;;;;;;21.45;13.35;;;9.60;99.90;;;;;;5086128;28;20029;-85
2023/01/07 04:44:14;;;;;;;21.70;13.68;;;9.60;99.90;;;;;;5096451;28;20089;-85
2023/01/07 04:46:40;;;;;;;19.25;13.70;;;9.60;99.90;;;;;;5099692;28;20028;-85
2023/01/07 04:49:07;;;;;;;20.90;14.60;;;9.60;99.90;;;;;;5094160;28;20054;-85
2023/01/07 04:51:34;;;;;;;22.50;13.95;;;9.70;99.90;;;;;;5071832;28;20055;-85
2023/01/07 04:54:00;;;;;;;19.48;13.93;;;9.60;99.90;;;;;;5101004;28;20037;-85
2023/01/07 04:56:27;;;;;;;19.73;13.55;;;9.60;99.90;;;;;;5103977;28;20127;-85
2023/01/07 04:58:54;;;;;;;20.10;13.23;;;9.60;99.90;;;;;;5071402;28;20036;-85
2023/01/07 05:01:21;;;;;;;21.05;13.75;;;9.60;99.90;;;;;;5078139;28;20111;-85
2023/01/07 05:03:47;;;;;;;20.10;13.63;;;9.60;99.90;;;;;;5089832;28;20044;-85
2023/01/07 05:06:14;;;;;;;20.50;13.32;;;9.60;99.90;;;;;;5089593;28;20389;-85
2023/01/07 05:08:41;;;;;;;20.98;14.07;;;9.60;99.90;;;;;;5093775;28;20492;-85
2023/01/07 05:11:07;;;;;;;19.80;13.48;;;9.60;99.90;;;;;;5090889;28;20056;-85
2023/01/07 05:13:34;;;;;;;19.15;13.27;;;9.50;99.90;;;;;;5073890;28;20080;-84
2023/01/07 05:16:02;;;;;;;18.80;12.75;;;9.60;99.90;;;;;;5077025;28;20047;-85
2023/01/07 05:18:29;;;;;;;21.23;12.85;;;9.50;99.90;;;;;;5072754;28;20036;-85
2023/01/07 05:20:56;;;;;;;17.58;12.55;;;9.50;99.90;;;;;;5098195;28;20067;-85
2023/01/07 05:23:22;;;;;;;18.30;13.07;;;9.50;99.90;;;;;;5083572;28;20075;-85
2023/01/07 05:25:49;;;;;;;17.10;12.05;;;9.60;99.90;;;;;;5073137;28;20040;-85
2023/01/07 05:28:16;;;;;;;19.40;12.30;;;9.60;99.90;;;;;;5088520;28;20492;-84
2023/01/07 05:30:42;;;;;;;18.63;12.65;;;9.60;99.90;;;;;;5108334;28;20039;-85
2023/01/07 05:33:09;;;;;;;17.33;12.18;;;9.50;99.90;;;;;;5068858;28;20098;-85
2023/01/07 05:35:36;;;;;;;19.27;11.77;;;9.60;99.90;;;;;;5072901;28;20044;-86
2023/01/07 05:38:03;;;;;;;17.70;12.32;;;9.60;99.90;;;;;;5059821;28;20515;-85
2023/01/07 05:40:30;;;;;;;16.55;11.43;;;9.50;99.90;;;;;;5092465;28;20484;-85
2023/01/07 05:42:56;;;;;;;18.27;11.43;;;9.60;99.90;;;;;;5109253;28;20104;-85
2023/01/07 05:45:23;;;;;;;19.83;11.68;;;9.60;99.90;;;;;;5060751;28;20048;-85
2023/01/07 05:47:50;;;;;;;16.48;11.18;;;9.60;99.90;;;;;;5103751;28;20044;-85
2023/01/07 05:50:17;;;;;;;17.40;10.65;;;9.60;99.90;;;;;;5074048;28;20064;-84
2023/01/07 05:52:43;;;;;;;16.10;10.98;;;9.60;99.90;;;;;;5090928;28;20055;-85
2023/01/07 05:55:10;;;;;;;16.73;10.68;;;9.60;99.90;;;;;;5089254;28;20535;-85
2023/01/07 05:57:37;;;;;;;17.05;10.68;;;9.60;99.90;;;;;;5099439;28;20048;-85
2023/01/07 06:00:04;;;;;;;18.40;10.85;;;9.60;99.90;;;;;;5082388;28;20040;-85
2023/01/07 06:02:31;;;;;;;18.85;11.07;;;9.60;99.90;;;;;;5089659;28;20051;-85
2023/01/07 06:04:57;;;;;;;17.13;10.57;;;9.50;99.90;;;;;;5076240;28;20480;-85
2023/01/07 06:07:24;;;;;;;15.15;10.35;;;9.50;99.90;;;;;;5086354;28;20092;-85
2023/01/07 06:09:51;;;;;;;14.95;10.15;;;9.60;99.90;;;;;;5092911;28;20064;-85
2023/01/07 06:12:17;;;;;;;15.18;9.55;;;9.60;99.90;;;;;;5087638;28;20047;-85
2023/01/07 06:14:44;;;;;;;14.10;9.75;;;9.50;99.90;;;;;;5092571;28;20400;-85
2023/01/07 06:17:11;;;;;;;14.60;9.60;;;9.50;99.90;;;;;;5086749;28;20059;-85
2023/01/07 06:19:38;;;;;;;12.73;8.98;;;9.60;99.90;;;;;;5103591;28;20036;-85
2023/01/07 06:22:04;;;;;;;15.98;9.45;;;9.50;99.90;;;;;;5091107;28;20039;-85
2023/01/07 06:24:31;;;;;;;13.60;9.25;;;9.50;99.90;;;;;;5089126;28;20108;-85
2023/01/07 06:26:57;;;;;;;13.43;8.70;;;9.60;99.90;;;;;;5082878;28;20043;-85
2023/01/07 06:29:24;;;;;;;15.00;9.77;;;9.60;99.90;;;;;;5101610;28;20032;-85
2023/01/07 06:31:51;;;;;;;15.05;9.60;;;9.60;99.90;;;;;;5075694;28;20064;-85
2023/01/07 06:34:17;;;;;;;14.35;8.30;;;9.50;99.90;;;;;;5088906;28;20102;-85
2023/01/07 06:36:44;;;;;;;12.20;8.18;;;9.60;99.90;;;;;;5102291;28;20518;-85
2023/01/07 06:39:11;;;;;;;15.15;8.85;;;9.60;99.90;;;;;;5092653;28;20472;-85
2023/01/07 06:41:37;;;;;;;20.52;9.27;;;9.60;99.90;;;;;;5074817;28;20535;-85
2023/01/07 06:44:04;;;;;;;14.32;8.75;;;9.60;99.90;;;;;;5075640;28;20036;-85
2023/01/07 06:46:31;;;;;;;16.15;8.82;;;9.60;99.90;;;;;;5125296;28;20032;-85
2023/01/07 06:48:59;;;;;;;18.52;9.45;;;9.60;99.90;;;;;;5092258;28;20446;-84
2023/01/07 06:51:25;;;;;;;11.70;7.78;;;9.60;99.90;;;;;;5074337;28;20104;-84
2023/01/07 06:53:52;;;;;;;11.05;8.05;;;9.60;99.90;;;;;;5062986;28;20036;-85
2023/01/07 06:56:19;;;;;;;12.27;7.50;;;9.60;99.90;;;;;;5072422;28;20058;-85
2023/01/07 06:58:45;;;;;;;12.68;8.18;;;9.60;99.90;;;;;;5088908;28;20525;-85
2023/01/07 07:01:12;;;;;;;13.57;7.90;;;9.60;99.90;;;;;;5092678;28;20477;-85
2023/01/07 07:03:39;;;;;;;12.65;7.80;;;9.60;99.90;;;;;;5092262;28;20041;-85
2023/01/07 07:06:06;;;;;;;12.55;7.65;;;9.60;99.90;;;;;;5074174;28;20040;-85
2023/01/07 07:08:33;;;;;;;11.38;7.57;;;9.60;99.90;;;;;;5112547;28;20032;-84
2023/01/07 07:10:59;;;;;;;17.00;8.23;;;9.60;99.90;;;;;;5079245;28;20062;-85
2023/01/07 07:13:26;;;;;;;12.82;7.65;;;9.60;99.90;;;;;;5095571;28;20060;-84
2023/01/07 07:15:53;;;;;;;13.18;7.40;;;9.60;99.90;;;;;;5095952;28;20098;-84
2023/01/07 07:18:20;;;;;;;13.52;7.40;;;9.60;99.90;;;;;;5095767;28;20781;-85
2023/01/07 07:20:47;;;;;;;11.13;7.40;;;9.60;99.90;;;;;;5111648;28;20044;-84
2023/01/07 07:23:14;;;;;;;12.15;6.90;;;9.60;99.90;;;;;;5072926;28;20128;-85
2023/01/07 07:25:41;;;;;;;10.65;6.85;;;9.60;99.90;;;;;;5073991;28;20083;-85
2023/01/07 07:28:08;;;;;;;12.38;7.00;;;9.60;99.90;;;;;;5112889;28;20032;-85
2023/01/07 07:30:36;;;;;;;9.70;6.38;;;9.60;99.90;;;;;;5108305;28;20047;-85
2023/01/07 07:33:03;;;;;;;13.50;6.50;;;9.60;99.90;;;;;;5116072;28;20039;-85
2023/01/07 07:35:30;;;;;;;12.23;6.57;;;9.60;99.90;;;;;;5113276;28;21403;-85
2023/01/07 07:37:57;;;;;;;10.52;6.85;;;9.60;99.90;;;;;;5095639;28;20056;-85
2023/01/07 07:40:24;;;;;;;10.05;6.80;;;9.60;99.90;;;;;;5076189;28;20488;-84
2023/01/07 07:42:50;;;;;;;11.18;6.85;;;9.60;99.90;;;;;;5090917;28;20473;-85
2023/01/07 07:45:18;;;;;;;10.70;6.43;;;9.60;99.90;;;;;;5110647;28;20083;-85
2023/01/07 07:47:45;;;;;;;11.55;6.13;;;9.60;99.90;;;;;;5107675;28;20040;-85
2023/01/07 07:50:12;;;;;;;10.05;6.05;;;9.60;99.90;;;;;;5093010;28;20032;-85
2023/01/07 07:52:39;;;;;;;9.85;6.20;;;9.50;99.90;;;;;;5115278;28;20817;-85
2023/01/07 07:55:07;;;;;;;9.60;5.97;;;9.50;99.90;;;;;;5091638;28;20676;-84
2023/01/07 07:57:33;;;;;;;9.65;5.38;;;9.50;99.90;;;;;;5109071;28;20044;-85
2023/01/07 08:00:00;;;;;;;9.50;5.38;;;9.50;99.90;;;;;;5089621;28;20035;-86
2023/01/07 08:02:27;;;;;;;10.43;5.45;;;9.50;99.90;;;;;;5081990;28;20042;-84
2023/01/07 08:04:53;;;;;;;8.45;5.88;;;9.50;99.90;;;;;;5083008;28;20515;-84
2023/01/07 08:07:20;;;;;;;9.38;5.00;;;9.50;99.90;;;;;;5097405;28;20043;-84
2023/01/07 08:09:47;;;;;;;7.93;4.95;;;9.50;99.90;;;;;;5091441;28;20044;-85
2023/01/07 08:12:13;;;;;;;7.85;5.28;;;9.50;99.90;;;;;;5104871;28;20043;-84
2023/01/07 08:14:40;;;;;;;10.88;5.07;;;9.60;99.90;;;;;;5072644;28;20560;-84
2023/01/07 08:17:07;;;;;;;10.38;5.43;;;9.60;99.90;;;;;;5083604;28;20032;-84
2023/01/07 08:19:33;;;;;;;9.82;4.90;;;9.60;99.90;;;;;;5086970;28;20040;-84
2023/01/07 08:22:00;;;;;;;8.35;4.93;;;9.60;99.90;;;;;;5083020;28;20036;-85
2023/01/07 08:24:27;;;;;;;10.32;5.45;;;9.60;99.90;;;;;;5089749;28;20041;-84
2023/01/07 08:26:54;;;;;;;10.45;5.65;;;9.60;99.90;;;;;;5082785;28;20049;-84
2023/01/07 08:29:22;;;;;;;9.93;5.35;;;9.60;99.90;;;;;;5086324;28;20450;-85
2023/01/07 08:31:48;;;;;;;8.55;4.97;;;9.60;99.90;;;;;;5085026;28;20128;-85
2023/01/07 08:34:15;;;;;;;9.85;5.22;;;9.60;99.90;;;;;;5089074;28;20067;-85
2023/01/07 08:36:42;;;;;;;10.57;4.85;;;9.60;99.90;;;;;;5108173;28;20055;-85
2023/01/07 08:39:11;;;;;;;8.10;4.80;;;9.60;99.90;;;;;;5079729;28;20404;-85
2023/01/07 08:41:37;;;;;;;9.82;5.28;;;9.60;99.90;;;;;;5102052;28;20027;-85
2023/01/07 08:44:04;;;;;;;8.27;4.72;;;9.60;99.90;;;;;;5076822;28;20130;-86
2023/01/07 08:46:31;;;;;;;9.07;4.95;;;9.60;99.90;;;;;;5106473;28;20083;-85
2023/01/07 08:48:57;;;;;;;10.05;5.15;;;9.60;99.90;;;;;;5091561;28;20040;-85
2023/01/07 08:51:24;;;;;;;8.98;5.20;;;9.60;99.90;;;;;;5074026;28;20142;-86
2023/01/07 08:53:51;;;;;;;9.38;5.10;;;9.50;99.90;;;;;;5092562;28;20039;-85
2023/01/07 08:56:17;;;;;;;8.93;5.05;;;9.60;99.90;;;;;;5117959;28;20036;-85
2023/01/07 08:58:44;;;;;;;9.25;4.80;;;9.50;99.90;;;;;;5082932;28;20102;-85
2023/01/07 09:01:11;;;;;;;7.25;4.43;;;9.50;99.90;;;;;;5083077;28;20116;-85
2023/01/07 09:03:37;;;;;;;6.68;4.68;;;9.60;99.90;;;;;;5073071;28;20398;-84
2023/01/07 09:06:04;;;;;;;10.35;4.43;;;9.60;99.90;;;;;;5125094;28;20035;-85
2023/01/07 09:08:31;;;;;;;12.38;4.55;;;9.60;99.90;;;;;;5074034;28;20068;-86
2023/01/07 09:10:58;;;;;;;9.20;4.57;;;9.60;99.90;;;;;;5072712;28;20083;-86
2023/01/07 09:13:24;;;;;;;7.13;4.60;;;9.60;99.90;;;;;;5099391;28;20804;-84
2023/01/07 09:15:51;;;;;;;7.00;4.30;;;9.60;99.90;;;;;;5074997;28;20044;-84
2023/01/07 09:18:19;;;;;;;9.13;4.50;;;9.60;99.90;;;;;;5075632;28;20067;-84
2023/01/07 09:20:46;;;;;;;9.52;4.35;;;9.60;99.90;;;;;;5096247;28;20036;-84
2023/01/07 09:23:12;;;;;;;7.40;4.13;;;9.60;99.90;;;;;;5090682;28;20094;-84
2023/01/07 09:25:39;;;;;;;7.32;4.10;;;9.60;99.90;;;;;;5093202;28;20151;-84
2023/01/07 09:28:06;;;;;;;7.38;4.15;;;9.60;99.90;;;;;;5079445;28;20041;-84
2023/01/07 09:30:33;;;;;;;6.20;3.78;;;9.60;99.90;;;;;;5095851;28;20389;-84
2023/01/07 09:33:00;;;;;;;13.02;3.63;;;9.60;99.90;;;;;;5093905;28;20036;-84
2023/01/07 09:35:27;;;;;;;6.00;3.40;;;9.60;99.90;;;;;;5079750;28;20036;-83
2023/01/07 09:37:53;;;;;;;8.40;3.88;;;9.60;99.90;;;;;;5099602;28;20040;-85
2023/01/07 09:40:39;;;;;;;7.43;3.55;;;9.60;99.90;;;;;;5078623;28;20107;-85
2023/01/07 09:43:40;;;;;;;5.63;3.42;;;9.70;99.90;;;;;;5107093;28;20033;-84
2023/01/07 09:46:10;;;;;;;7.90;3.17;;;9.70;99.90;;;;;;5108532;28;20037;-85
2023/01/07 09:48:47;;;;;;;7.65;3.85;;;9.80;99.90;;;;;;5116131;28;20044;-83
2023/01/07 09:51:22;;;;;;;5.30;3.33;;;9.80;99.90;;;;;;5106820;28;20466;-85
2023/01/07 09:53:53;;;;;;;5.10;3.60;;;9.80;99.90;;;;;;5102591;28;20101;-85
2023/01/07 09:56:28;;;;;;;7.47;3.50;;;9.90;99.90;;;;;;5134139;28;20163;-84
2023/01/07 09:58:57;;;;;;;5.15;3.20;;;9.90;99.90;;;;;;5111638;28;20101;-84
2023/01/07 10:01:26;;;;;;;5.43;3.20;;;9.80;99.90;;;;;;5100563;28;20043;-84
2023/01/07 10:03:53;;;;;;;6.35;3.20;;;9.80;99.90;;;;;;5097816;28;20041;-84
2023/01/07 10:06:46;;;;;;;5.53;3.00;;;9.80;99.90;;;;;;5115445;28;20039;-84
2023/01/07 10:09:31;;;;;;;5.20;3.05;;;9.70;99.90;;;;;;5109458;28;20115;-85
2023/01/07 10:12:09;;;;;;;5.97;3.00;;;9.70;99.90;;;;;;5098329;28;20125;-84
2023/01/07 10:15:09;;;;;;;5.22;2.90;;;9.70;99.90;;;;;;5106872;28;20049;-85
2023/01/07 10:18:07;;;;;;;7.30;3.10;;;9.70;99.90;;;;;;5117240;28;20040;-85
2023/01/07 10:20:58;;;;;;;4.85;2.85;;;9.70;99.90;;;;;;5038874;28;20101;-84
2023/01/07 10:23:30;;;;;;;6.38;2.72;;;9.80;99.90;;;;;;5090306;28;20416;-85
2023/01/07 10:26:00;;;;;;;7.07;2.85;;;9.90;99.90;;;;;;5105747;28;20044;-85
2023/01/07 10:28:43;;;;;;;5.63;2.65;;;9.90;99.90;;;;;;5083010;28;20047;-84
2023/01/07 10:31:16;;;;;;;5.82;2.28;;;9.90;99.90;;;;;;5105340;28;20076;-84
2023/01/07 10:33:46;;;;;;;4.82;2.60;;;10.00;99.90;;;;;;5105631;28;20093;-83
2023/01/07 10:36:29;;;;;;;6.78;2.75;;;10.00;99.90;;;;;;5129394;28;20070;-84
2023/01/07 10:39:27;;;;;;;4.25;2.20;;;10.00;99.90;;;;;;5115582;28;20506;-84
2023/01/07 10:42:14;;;;;;;3.63;2.17;;;10.00;99.90;;;;;;5133851;28;20036;-84
2023/01/07 10:45:10;;;;;;;3.88;2.03;;;10.00;99.90;;;;;;5098597;28;20519;-85
2023/01/07 10:47:37;;;;;;;6.13;2.50;;;10.00;99.90;;;;;;5105093;28;20036;-85
2023/01/07 10:50:21;;;;;;;9.18;2.45;;;10.00;99.90;;;;;;5129352;28;20051;-85
2023/01/07 10:53:12;;;;;;;5.30;2.17;;;10.00;99.90;;;;;;5107275;28;20044;-84
2023/01/07 10:55:54;;;;;;;4.53;2.20;;;10.00;99.90;;;;;;5113394;28;20040;-85
2023/01/07 10:58:21;;;;;;;4.70;2.20;;;10.00;99.90;;;;;;5122781;28;20115;-85
2023/01/07 11:00:48;;;;;;;4.45;2.30;;;10.00;99.90;;;;;;5085215;28;20112;-84
2023/01/07 11:03:23;;;;;;;4.72;2.22;;;10.10;99.90;;;;;;5093040;28;20075;-85
2023/01/07 11:05:55;;;;;;;4.80;1.90;;;10.10;99.90;;;;;;5089186;28;20041;-84
2023/01/07 11:08:35;;;;;;;6.13;2.35;;;10.10;99.90;;;;;;5105888;28;20043;-85
2023/01/07 11:11:03;;;;;;;4.05;1.98;;;10.20;99.90;;;;;;5124192;28;20048;-84
2023/01/07 11:13:33;;;;;;;6.05;1.90;;;10.20;99.90;;;;;;5104464;28;20045;-85
2023/01/07 11:16:06;;;;;;;4.32;1.75;;;10.20;99.90;;;;;;5128888;28;20082;-85
2023/01/07 11:18:44;;;;;;;4.50;1.77;;;10.20;99.90;;;;;;5119396;28;20060;-84
2023/01/07 11:21:11;;;;;;;3.55;1.70;;;10.20;99.90;;;;;;5116149;28;20404;-85
2023/01/07 11:23:39;;;;;;;4.65;1.83;;;10.20;99.90;;;;;;5079691;28;20054;-85
2023/01/07 11:26:23;;;;;;;4.07;1.77;;;10.20;99.90;;;;;;5120139;28;20036;-85
2023/01/07 11:28:56;;;;;;;5.57;2.53;;;10.30;99.90;;;;;;5104728;28;20032;-85
2023/01/07 11:31:47;;;;;;;3.15;1.50;;;10.30;99.90;;;;;;5119380;28;20389;-84
2023/01/07 11:34:26;;;;;;;3.25;1.55;;;10.30;99.90;;;;;;5112838;28;20048;-84
2023/01/07 11:36:53;;;;;;;4.03;1.90;;;10.30;99.90;;;;;;5128667;28;20515;-84
2023/01/07 11:39:39;;;;;;;3.80;1.48;;;10.30;99.90;;;;;;5108918;28;20136;-84
2023/01/07 11:45:20;;;;;;;6.15;1.95;;;10.40;99.90;;;;;;5107761;28;19924;-84
2023/01/07 11:47:48;;;;;;;4.38;1.83;;;10.40;99.90;;;;;;5118271;28;20556;-83
2023/01/07 11:50:24;;;;;;;3.42;1.65;;;10.50;99.90;;;;;;5114682;28;20032;-83
2023/01/07 11:52:56;;;;;;;3.53;1.50;;;10.50;99.90;;;;;;5128021;28;20067;-84
2023/01/07 11:55:22;;;;;;;3.90;1.70;;;10.40;99.90;;;;;;5120607;28;20561;-84
2023/01/07 11:57:54;;;;;;;4.25;1.55;;;10.50;99.90;;;;;;5098228;28;20205;-84
2023/01/07 12:00:20;;;;;;;4.57;1.70;;;10.40;99.90;;;;;;5100373;28;20411;-84
2023/01/07 12:03:11;;;;;;;3.72;1.60;;;10.40;99.90;;;;;;5119534;28;20036;-84
2023/01/07 12:05:40;;;;;;;2.97;1.60;;;10.40;99.90;;;;;;5111454;28;20552;-85
2023/01/07 12:08:21;;;;;;;3.00;1.52;;;10.40;99.90;;;;;;5089449;28;20032;-85
2023/01/07 12:10:55;;;;;;;21.48;1.98;;;10.40;99.90;;;;;;5111104;28;20048;-85
2023/01/07 12:13:26;;;;;;;4.35;1.67;;;10.40;99.90;;;;;;5125639;28;20043;-84
2023/01/07 12:16:00;;;;;;;3.40;1.70;;;10.40;99.90;;;;;;5110876;28;20082;-84
2023/01/07 12:18:36;;;;;;;4.45;1.70;;;10.40;99.90;;;;;;5110364;28;20044;-84
2023/01/07 12:21:12;;;;;;;4.03;1.70;;;10.40;99.90;;;;;;5103675;28;20043;-84
2023/01/07 12:23:51;;;;;;;;;;;10.40;99.90;;;;;;5108964;28;20044;-84
2023/01/07 12:26:21;;;;;;;4.97;2.05;;;10.40;99.90;;;;;;5116700;28;19962;-84
2023/01/07 12:29:12;;;;;;;5.63;2.10;;;10.40;99.90;;;;;;5110262;28;20032;-84
2023/01/07 12:31:55;;;;;;;5.45;2.38;;;10.40;99.90;;;;;;5109091;28;20040;-84
2023/01/07 12:34:53;;;;;;;4.35;2.30;;;10.50;99.90;;;;;;5126462;28;20067;-81
2023/01/07 12:37:25;;;;;;;4.88;2.00;;;10.40;99.90;;;;;;5089767;28;20052;-80
2023/01/07 12:40:01;;;;;;;3.75;1.92;;;10.50;99.90;;;;;;5107527;28;20481;-84
2023/01/07 12:42:32;;;;;;;3.88;1.73;;;10.50;99.90;;;;;;5107406;28;20093;-83
2023/01/07 12:45:03;;;;;;;4.10;1.90;;;10.50;99.90;;;;;;5100351;28;20032;-84
2023/01/07 12:47:36;;;;;;;4.38;1.80;;;10.50;99.90;;;;;;5110457;28;20051;-84
2023/01/07 12:50:09;;;;;;;4.18;1.73;;;10.50;99.90;;;;;;5110309;28;20048;-84
2023/01/07 12:52:43;;;;;;;8.07;2.92;;;10.50;99.90;;;;;;5110129;28;20067;-84
2023/01/07 12:55:50;;;;;;;4.68;2.42;;;10.50;99.90;;;;;;5110020;28;20091;-84
2023/01/07 12:58:26;;;;;;;4.57;1.90;;;10.50;99.90;;;;;;5048637;28;20044;-84
2023/01/07 13:00:56;;;;;;;;;;;10.50;99.90;;;;;;5033284;28;20048;-84
2023/01/07 13:03:43;;;;;;;4.80;1.90;;;10.50;99.90;;;;;;5075923;28;20002;-84
2023/01/07 13:06:23;;;;;;;5.05;1.63;;;10.60;99.90;;;;;;5109902;28;20075;-83
2023/01/07 13:09:06;;;;;;;4.78;1.77;;;10.50;99.90;;;;;;5109715;28;20093;-84
2023/01/07 13:14:36;;;;;;;3.05;1.45;;;10.40;99.90;;;;;;5126601;28;20787;-84
2023/01/07 13:17:13;;;;;;;3.35;1.60;;;10.40;99.90;;;;;;5110306;28;20074;-84